Terminal Aerodrome Forecast
Issued by NWS Blacksburg, VA

Current Version | Previous Version | Graphics & Text | Print | Product List | Glossary On
Versions: 1 2 3 4 5 6 7 8 9 10 11 12 13 14 15 16 17 18 19 20 21 22 23 24 25 26 27 28 29 30 31 32 33 34 35 36 37 38 39 40
000
FTUS41 KRNK 301322 AAA
TAFBLF
TAF AMD
KBLF 301322Z 3013/3112 29017G27KT 3SM -SHSN OVC010
      TEMPO 3013/3016 1/4SM +SN OVC006
     FM301700 29020G32KT P6SM -SHSN OVC010
     FM302200 30015G25KT P6SM BKN020
     FM310300 29010G20KT P6SM SCT020=

USA.gov is the U.S. government's official web portal to all federal, state and local government web resources and services.